createdAt,value
2019-04-27T00:01:05.276Z,83.43
2019-04-27T00:04:39.675Z,84.15
2019-04-27T00:07:56.263Z,83.38
2019-04-27T00:11:16.455Z,83.49
2019-04-27T00:14:20.164Z,84.26
2019-04-27T00:17:45.706Z,83.57
2019-04-27T00:20:59.700Z,84.17
2019-04-27T00:24:03.572Z,84.05
2019-04-27T00:27:07.738Z,82.68
2019-04-27T00:30:13.838Z,82.58
2019-04-27T00:33:17.598Z,83.01
2019-04-27T00:36:27.891Z,82.60
2019-04-27T00:39:50.685Z,82.72
2019-04-27T00:42:54.728Z,83.05
2019-04-27T00:45:58.445Z,83.04
2019-04-27T00:49:03.717Z,82.95
2019-04-27T00:52:07.581Z,82.74
2019-04-27T00:55:13.078Z,83.01
2019-04-27T00:58:36.352Z,82.92
2019-04-27T01:01:45.243Z,82.41
2019-04-27T01:04:49.473Z,82.44
2019-04-27T01:07:53.859Z,82.68
2019-04-27T01:10:57.982Z,82.01
2019-04-27T01:14:01.688Z,82.87
2019-04-27T01:17:05.816Z,82.42
2019-04-27T01:20:10.197Z,83.02
2019-04-27T01:23:14.225Z,82.67
2019-04-27T01:26:36.399Z,82.60
2019-04-27T01:29:41.486Z,82.10
2019-04-27T01:32:45.220Z,82.39
2019-04-27T01:35:49.211Z,82.95
2019-04-27T01:38:52.951Z,83.70
2019-04-27T01:41:56.912Z,83.11
2019-04-27T01:45:00.995Z,83.43
2019-04-27T01:48:05.073Z,82.95
2019-04-27T01:51:09.341Z,83.14
2019-04-27T01:54:16.000Z,83.03
2019-04-27T01:57:19.714Z,83.98
2019-04-27T02:00:39.615Z,83.65
2019-04-27T02:03:52.401Z,83.37
2019-04-27T02:06:58.998Z,83.61
2019-04-27T02:10:03.055Z,84.00
2019-04-27T02:13:08.803Z,83.95
2019-04-27T02:16:12.572Z,83.03
2019-04-27T02:19:16.364Z,83.24
2019-04-27T02:22:20.068Z,82.93
2019-04-27T02:25:23.777Z,83.89
2019-04-27T02:28:52.583Z,83.85
2019-04-27T02:32:15.823Z,84.04
2019-04-27T02:35:19.574Z,83.57
2019-04-27T02:38:23.294Z,83.48
2019-04-27T02:41:29.595Z,84.48
2019-04-27T02:44:37.320Z,84.20
2019-04-27T02:47:41.029Z,83.78
2019-04-27T02:50:46.938Z,83.70
2019-04-27T02:53:54.735Z,83.95
2019-04-27T02:56:59.469Z,83.25
2019-04-27T03:00:04.127Z,84.20
2019-04-27T03:03:10.390Z,83.74
2019-04-27T03:06:14.693Z,83.70
2019-04-27T03:09:20.556Z,83.45
2019-04-27T03:12:29.402Z,83.19
2019-04-27T03:15:44.244Z,83.48
2019-04-27T03:19:14.375Z,83.42
2019-04-27T03:22:23.083Z,84.21
2019-04-27T03:25:44.789Z,83.10
2019-04-27T03:28:50.311Z,83.23
2019-04-27T03:31:54.768Z,83.04
2019-04-27T03:35:02.844Z,83.20
2019-04-27T03:38:05.004Z,82.99
2019-04-27T03:41:09.575Z,83.50
2019-04-27T03:44:14.040Z,83.18
2019-04-27T03:47:19.792Z,83.64
2019-04-27T03:50:30.336Z,83.81
2019-04-27T03:53:39.617Z,83.77
2019-04-27T03:56:46.454Z,82.88
2019-04-27T04:00:01.320Z,82.72
2019-04-27T04:03:05.476Z,84.12
2019-04-27T04:06:10.820Z,83.76
2019-04-27T04:09:15.142Z,83.74
2019-04-27T04:12:40.056Z,83.40
2019-04-27T04:16:00.210Z,83.34
2019-04-27T04:19:06.331Z,82.72
2019-04-27T04:22:10.403Z,83.10
2019-04-27T04:25:14.578Z,82.97
2019-04-27T04:28:19.961Z,83.42
2019-04-27T04:31:24.019Z,83.46
2019-04-27T04:34:29.835Z,82.87
2019-04-27T04:37:33.167Z,82.50
2019-04-27T04:40:42.549Z,82.99
2019-04-27T04:43:59.919Z,82.37
2019-04-27T04:47:11.689Z,82.83
2019-04-27T04:50:15.638Z,82.31
2019-04-27T04:53:20.583Z,82.38
2019-04-27T04:56:24.705Z,82.79
2019-04-27T04:59:29.132Z,82.85
2019-04-27T05:02:33.091Z,82.18
2019-04-27T05:05:36.857Z,82.20
2019-04-27T05:08:40.571Z,83.56
2019-04-27T05:11:44.277Z,83.62
2019-04-27T05:14:48.971Z,83.62
2019-04-27T05:17:53.058Z,83.59
2019-04-27T05:21:04.770Z,83.52
2019-04-27T05:24:09.334Z,84.45
2019-04-27T05:27:13.349Z,83.83
2019-04-27T05:30:17.439Z,83.10
2019-04-27T05:33:21.458Z,82.88
2019-04-27T05:36:25.188Z,83.46
2019-04-27T05:39:29.959Z,83.08
2019-04-27T05:42:33.889Z,83.33
2019-04-27T05:46:39.881Z,83.71
2019-04-27T05:49:45.879Z,83.42
2019-04-27T05:52:49.821Z,82.64
2019-04-27T05:55:53.948Z,83.37
2019-04-27T05:59:00.250Z,83.26
2019-04-27T06:02:03.109Z,82.57
2019-04-27T06:05:08.785Z,82.77
2019-04-27T06:08:12.579Z,82.77
2019-04-27T06:11:16.334Z,83.29
2019-04-27T06:14:20.050Z,82.91
2019-04-27T06:17:24.015Z,82.40
2019-04-27T06:20:28.574Z,82.75
2019-04-27T06:23:32.432Z,82.21
2019-04-27T06:26:36.148Z,82.10
2019-04-27T06:29:40.895Z,82.05
2019-04-27T06:32:44.650Z,84.03
2019-04-27T06:35:49.523Z,83.42
2019-04-27T06:38:53.420Z,82.53
2019-04-27T06:41:59.025Z,82.93
2019-04-27T06:45:02.587Z,81.96
2019-04-27T06:48:06.780Z,81.85
2019-04-27T06:51:10.822Z,81.81
2019-04-27T06:54:14.524Z,80.21
2019-04-27T06:57:19.257Z,81.19
2019-04-27T07:00:23.055Z,81.43
2019-04-27T07:03:28.534Z,81.95
2019-04-27T07:06:32.534Z,80.56
2019-04-27T07:09:36.465Z,81.53
2019-04-27T07:12:41.067Z,81.33
2019-04-27T07:15:44.893Z,79.89
2019-04-27T07:18:50.324Z,79.37
2019-04-27T07:21:54.170Z,80.02
2019-04-27T07:24:59.055Z,78.79
2019-04-27T07:28:02.870Z,79.08
2019-04-27T07:31:06.913Z,78.77
2019-04-27T07:34:10.612Z,78.07
2019-04-27T07:37:14.598Z,77.45
2019-04-27T07:40:18.852Z,76.92
2019-04-27T07:43:33.653Z,79.10
2019-04-27T07:46:38.570Z,76.20
2019-04-27T07:49:42.645Z,75.19
2019-04-27T07:52:46.359Z,74.58
2019-04-27T07:55:50.067Z,73.46
2019-04-27T07:58:53.790Z,71.56
2019-04-27T08:01:59.108Z,72.51
2019-04-27T08:05:03.006Z,73.64
2019-04-27T08:08:08.849Z,72.16
2019-04-27T08:11:12.476Z,71.83
2019-04-27T08:14:16.182Z,69.52
2019-04-27T08:17:20.214Z,68.66
2019-04-27T08:20:23.939Z,71.34
2019-04-27T08:23:29.355Z,68.73
2019-04-27T08:26:40.289Z,68.14
2019-04-27T08:30:19.428Z,65.89
2019-04-27T08:33:23.323Z,70.11
2019-04-27T08:36:28.788Z,70.15
2019-04-27T08:39:32.892Z,64.70
2019-04-27T08:42:36.860Z,63.33
2019-04-27T08:45:40.885Z,64.09
2019-04-27T08:48:44.597Z,65.92
2019-04-27T08:51:57.201Z,65.29
2019-04-27T08:54:54.040Z,63.76
2019-04-27T08:57:58.756Z,63.46
2019-04-27T09:01:02.559Z,61.34
2019-04-27T09:04:06.612Z,61.47
2019-04-27T09:07:29.443Z,60.34
2019-04-27T09:10:40.943Z,60.52
2019-04-27T09:14:03.773Z,61.89
2019-04-27T09:17:13.440Z,60.48
2019-04-27T09:20:39.131Z,59.46
2019-04-27T09:23:43.081Z,60.63
2019-04-27T09:26:46.798Z,56.43
2019-04-27T09:29:50.815Z,56.57
2019-04-27T09:32:54.535Z,57.67
2019-04-27T09:35:58.589Z,53.55
2019-04-27T09:39:02.282Z,53.55
2019-04-27T09:42:06.698Z,52.75
2019-04-27T09:45:11.072Z,55.44
2019-04-27T09:48:15.919Z,56.27
2019-04-27T09:51:20.212Z,50.23
2019-04-27T09:54:24.000Z,49.85
2019-04-27T09:57:28.054Z,51.34
2019-04-27T10:00:31.907Z,49.69
2019-04-27T10:03:36.176Z,51.26
2019-04-27T10:06:39.892Z,50.33
2019-04-27T10:09:43.593Z,47.68
2019-04-27T10:12:47.301Z,48.19
2019-04-27T10:15:51.008Z,49.40
2019-04-27T10:18:54.718Z,46.93
2019-04-27T10:21:58.426Z,46.81
2019-04-27T10:25:02.123Z,47.10
2019-04-27T10:28:06.867Z,44.66
2019-04-27T10:31:10.698Z,43.52
2019-04-27T10:34:14.400Z,39.82
2019-04-27T10:37:18.100Z,41.58
2019-04-27T10:40:21.791Z,39.24
2019-04-27T10:43:25.859Z,41.69
2019-04-27T10:46:29.916Z,44.77
2019-04-27T10:49:33.687Z,37.78
2019-04-27T10:52:37.409Z,34.83
2019-04-27T10:55:41.257Z,40.54
2019-04-27T10:58:45.745Z,34.81
2019-04-27T11:01:49.545Z,34.11
2019-04-27T11:05:02.647Z,30.21
2019-04-27T11:08:06.858Z,30.50
2019-04-27T11:11:10.633Z,32.25
2019-04-27T11:14:15.987Z,33.95
2019-04-27T11:17:19.897Z,33.62
2019-04-27T11:20:27.473Z,32.14
2019-04-27T11:23:29.612Z,36.68
2019-04-27T11:26:33.380Z,34.85
2019-04-27T11:29:37.335Z,29.98
2019-04-27T11:32:41.906Z,32.11
2019-04-27T11:36:17.155Z,33.70
2019-04-27T11:39:21.232Z,34.20
2019-04-27T11:42:25.380Z,31.79
2019-04-27T11:45:29.152Z,31.78
2019-04-27T11:48:32.850Z,31.04
2019-04-27T11:51:36.689Z,35.25
2019-04-27T11:54:40.428Z,33.55
2019-04-27T11:57:44.133Z,34.36
2019-04-27T12:00:47.901Z,34.56
2019-04-27T12:03:51.900Z,35.28
2019-04-27T12:06:56.508Z,35.46
2019-04-27T12:10:00.577Z,33.62
2019-04-27T12:13:05.457Z,33.23
2019-04-27T12:16:09.695Z,32.32
2019-04-27T12:19:13.486Z,33.22
2019-04-27T12:22:17.179Z,35.16
2019-04-27T12:25:21.001Z,35.94
2019-04-27T12:28:33.419Z,31.00
2019-04-27T12:31:39.379Z,31.53
2019-04-27T12:34:43.083Z,31.59
2019-04-27T12:37:47.023Z,32.25
2019-04-27T12:40:51.022Z,35.57
2019-04-27T12:43:56.107Z,35.04
2019-04-27T12:47:02.592Z,35.06
2019-04-27T12:50:06.252Z,36.19
2019-04-27T12:53:14.744Z,37.94
2019-04-27T12:56:40.707Z,39.37
2019-04-27T13:00:03.793Z,36.55
2019-04-27T13:03:07.585Z,36.61
2019-04-27T13:06:11.347Z,37.07
2019-04-27T13:09:15.575Z,39.90
2019-04-27T13:12:20.634Z,36.98
2019-04-27T13:15:24.542Z,36.35
2019-04-27T13:18:28.679Z,33.10
2019-04-27T13:21:32.730Z,33.71
2019-04-27T13:24:36.819Z,36.42
2019-04-27T13:27:40.536Z,37.14
2019-04-27T13:30:45.611Z,37.19
2019-04-27T13:33:50.063Z,36.01
2019-04-27T13:36:56.078Z,37.01
2019-04-27T13:40:07.163Z,37.20
2019-04-27T13:43:10.587Z,40.56
2019-04-27T13:46:28.834Z,40.27
2019-04-27T13:49:49.976Z,41.84
2019-04-27T13:52:53.682Z,42.95
2019-04-27T13:55:59.367Z,46.69
2019-04-27T13:59:03.424Z,48.94
2019-04-27T14:02:09.010Z,51.15
2019-04-27T14:05:12.958Z,52.25
2019-04-27T14:08:16.690Z,52.29
2019-04-27T14:11:20.407Z,56.23
2019-04-27T14:14:24.141Z,62.06
2019-04-27T14:17:29.349Z,67.13
2019-04-27T14:20:33.270Z,70.49
2019-04-27T14:23:38.582Z,69.11
2019-04-27T14:26:42.371Z,71.25
2019-04-27T14:29:46.089Z,73.91
2019-04-27T14:32:49.800Z,73.13
2019-04-27T14:35:54.013Z,74.73
2019-04-27T14:38:58.793Z,75.81
2019-04-27T14:42:03.188Z,75.45
2019-04-27T14:45:09.244Z,75.11
2019-04-27T14:48:13.140Z,75.34
2019-04-27T14:51:18.655Z,74.20
2019-04-27T14:54:22.445Z,75.68
2019-04-27T14:57:26.512Z,76.91
2019-04-27T15:00:30.630Z,75.39
2019-04-27T15:03:34.495Z,76.59
2019-04-27T15:06:38.266Z,74.19
2019-04-27T15:09:42.052Z,76.71
2019-04-27T15:12:45.827Z,74.07
2019-04-27T15:15:49.532Z,73.88
2019-04-27T15:18:57.727Z,73.18
2019-04-27T15:22:01.420Z,75.22
2019-04-27T15:25:11.885Z,73.55
2019-04-27T15:28:15.267Z,73.51
2019-04-27T15:31:29.528Z,71.96
2019-04-27T15:34:42.977Z,76.51
2019-04-27T15:37:51.344Z,75.40
2019-04-27T15:41:08.814Z,71.34
2019-04-27T15:44:12.687Z,71.58
2019-04-27T15:47:17.792Z,71.13
2019-04-27T15:50:23.550Z,73.46
2019-04-27T15:53:28.434Z,72.72
2019-04-27T15:56:35.229Z,71.01
2019-04-27T15:59:40.835Z,71.42
2019-04-27T16:02:44.539Z,74.23
2019-04-27T16:05:49.066Z,73.37
2019-04-27T16:08:52.983Z,73.19
2019-04-27T16:12:07.003Z,72.48
2019-04-27T16:15:04.983Z,71.67
2019-04-27T16:18:08.786Z,71.51
2019-04-27T16:21:12.737Z,72.17
2019-04-27T16:24:17.134Z,70.38
2019-04-27T16:27:25.815Z,69.41
2019-04-27T16:30:28.783Z,72.70
2019-04-27T16:33:32.524Z,71.31
2019-04-27T16:36:37.771Z,70.78
2019-04-27T16:39:45.665Z,68.69
2019-04-27T16:42:50.600Z,71.18
2019-04-27T16:45:52.803Z,69.20
2019-04-27T16:48:59.282Z,75.30
2019-04-27T16:52:02.027Z,75.41
2019-04-27T16:55:06.085Z,77.59
2019-04-27T16:58:15.807Z,76.54
2019-04-27T17:01:24.387Z,73.24
2019-04-27T17:04:29.073Z,74.61
2019-04-27T17:07:37.736Z,74.04
2019-04-27T17:10:39.324Z,76.97
2019-04-27T17:13:49.716Z,78.06
2019-04-27T17:16:58.277Z,77.64
2019-04-27T17:20:03.360Z,76.19
2019-04-27T17:23:08.665Z,76.21
2019-04-27T17:26:21.238Z,77.67
2019-04-27T17:29:20.518Z,76.92
2019-04-27T17:32:38.871Z,76.97
2019-04-27T17:35:43.313Z,78.41
2019-04-27T17:38:50.835Z,78.49
2019-04-27T17:41:52.952Z,75.81
2019-04-27T17:45:00.295Z,75.59
2019-04-27T17:48:06.952Z,75.74
2019-04-27T17:51:09.016Z,77.08
2019-04-27T17:54:13.043Z,75.39
2019-04-27T17:57:17.904Z,74.66
2019-04-27T18:00:22.259Z,75.52
2019-04-27T18:03:25.951Z,76.46
2019-04-27T18:06:29.897Z,77.34
2019-04-27T18:09:39.893Z,76.56
2019-04-27T18:12:39.414Z,76.99
2019-04-27T18:15:45.699Z,75.97
2019-04-27T18:19:07.872Z,78.36
2019-04-27T18:22:07.128Z,76.81
2019-04-27T18:25:11.397Z,77.85
2019-04-27T18:28:19.197Z,78.57
2019-04-27T18:31:23.184Z,77.92
2019-04-27T18:34:28.600Z,77.99
2019-04-27T18:37:32.747Z,77.72
2019-04-27T18:40:38.187Z,77.55
2019-04-27T18:43:46.534Z,77.59
2019-04-27T18:46:48.921Z,77.86
2019-04-27T18:50:24.436Z,79.23
2019-04-27T18:53:29.515Z,77.98
2019-04-27T18:56:38.449Z,77.85
2019-04-27T18:59:38.824Z,77.40
2019-04-27T19:02:42.917Z,78.99
2019-04-27T19:05:48.124Z,79.24
2019-04-27T19:08:51.904Z,78.70
2019-04-27T19:11:56.658Z,77.71
2019-04-27T19:15:00.608Z,77.34
2019-04-27T19:18:04.378Z,79.60
2019-04-27T19:21:08.751Z,80.60
2019-04-27T19:24:12.988Z,79.83
2019-04-27T19:27:44.560Z,79.34
2019-04-27T19:30:53.011Z,82.92
2019-04-27T19:33:56.707Z,82.35
2019-04-27T19:37:00.411Z,81.46
2019-04-27T19:40:04.380Z,82.64
2019-04-27T19:43:08.080Z,81.12
2019-04-27T19:46:11.860Z,81.66
2019-04-27T19:49:15.553Z,81.63
2019-04-27T19:52:19.264Z,80.84
2019-04-27T19:55:23.048Z,82.72
2019-04-27T19:58:26.740Z,81.59
2019-04-27T20:01:40.017Z,81.78
2019-04-27T20:04:46.588Z,81.56
2019-04-27T20:07:50.296Z,82.09
2019-04-27T20:10:54.014Z,81.70
2019-04-27T20:13:57.724Z,80.86
2019-04-27T20:17:01.434Z,81.29
2019-04-27T20:20:06.084Z,82.06
2019-04-27T20:23:09.793Z,82.79
2019-04-27T20:26:13.823Z,81.38
2019-04-27T20:29:17.536Z,81.67
2019-04-27T20:32:21.650Z,82.14
2019-04-27T20:35:25.314Z,82.15
2019-04-27T20:38:29.323Z,82.40
2019-04-27T20:41:33.014Z,80.57
2019-04-27T20:44:36.725Z,80.81
2019-04-27T20:47:40.428Z,81.20
2019-04-27T20:50:44.128Z,80.68
2019-04-27T20:53:51.719Z,81.67
2019-04-27T20:56:57.326Z,80.62
2019-04-27T21:00:01.995Z,81.06
2019-04-27T21:03:24.932Z,80.63
2019-04-27T21:06:32.888Z,80.89
2019-04-27T21:09:36.876Z,80.27
2019-04-27T21:12:41.674Z,81.62
2019-04-27T21:15:45.388Z,80.42
2019-04-27T21:18:49.079Z,81.28
2019-04-27T21:21:52.794Z,80.53
2019-04-27T21:24:56.494Z,80.83
2019-04-27T21:28:14.894Z,80.67
2019-04-27T21:31:05.643Z,80.79
2019-04-27T21:34:09.352Z,80.12
2019-04-27T21:37:14.010Z,80.12
2019-04-27T21:40:21.250Z,81.68
2019-04-27T21:43:24.833Z,81.31
2019-04-27T21:46:28.534Z,80.88
2019-04-27T21:49:32.546Z,81.23
2019-04-27T21:52:38.047Z,81.15
2019-04-27T21:55:42.252Z,80.79
2019-04-27T21:58:46.039Z,80.40
2019-04-27T22:01:51.650Z,80.11
2019-04-27T22:04:55.245Z,81.22
2019-04-27T22:07:58.944Z,80.93
2019-04-27T22:11:02.921Z,80.30
2019-04-27T22:14:06.622Z,80.87
2019-04-27T22:17:10.991Z,81.29
2019-04-27T22:20:14.963Z,81.22
2019-04-27T22:23:37.640Z,81.11
2019-04-27T22:26:41.617Z,80.81
2019-04-27T22:29:45.533Z,80.69
2019-04-27T22:32:51.366Z,81.65
2019-04-27T22:35:54.961Z,80.51
2019-04-27T22:39:02.518Z,80.72
2019-04-27T22:42:24.168Z,80.65
2019-04-27T22:45:31.505Z,81.16
2019-04-27T22:48:35.217Z,80.83
2019-04-27T22:51:41.161Z,80.35
2019-04-27T22:54:44.645Z,80.58
2019-04-27T22:58:03.584Z,80.42
2019-04-27T23:01:13.834Z,81.12
2019-04-27T23:04:19.738Z,81.16
2019-04-27T23:07:23.762Z,81.23
2019-04-27T23:10:27.463Z,80.91
2019-04-27T23:13:31.151Z,81.16
2019-04-27T23:16:36.779Z,81.30
2019-04-27T23:19:40.844Z,80.54
2019-04-27T23:22:45.898Z,81.47
2019-04-27T23:25:51.293Z,81.06
2019-04-27T23:28:55.071Z,81.50
2019-04-27T23:32:05.162Z,80.90
2019-04-27T23:35:09.030Z,80.90
2019-04-27T23:38:17.236Z,80.90
2019-04-27T23:41:19.069Z,80.90
2019-04-27T23:44:22.803Z,81.24
2019-04-27T23:47:27.054Z,81.51
2019-04-27T23:50:32.713Z,80.86
2019-04-27T23:53:37.426Z,81.17
2019-04-27T23:56:42.062Z,80.86
2019-04-27T23:59:45.772Z,81.16
